Orbital elements of N-1 DEB
| Launched | 15 February 1978 |
| Flight ended | – |
| Launch site | Tanegashima Space Center, Japan |
| Owner | Japan |
| NORAD ID | 13132 |
| Date fetched |
Epoch osculation |
Inc. [°] |
Ecc. | RA asc node [hr] |
Arg Peri. [°] |
Mean anom [°] |
Mean motion [rev/day] |
Abs. mag |
| Date fetched |
Epoch osculation |
Inc. [°] |
Ecc. | RA asc node [hr] |
Arg Peri. [°] |
Mean anom [°] |
Mean motion [rev/day] |
Abs. mag |
| 2026 May 08 17:57 | 2026 May 05 08:28:29 | 69.2072 | 0.02096 | 17.5169 | 168.9813 | 224.7931 | 13.34987 | – |
| 2026 May 07 17:58 | 2026 May 05 08:28:29 | 69.2072 | 0.02096 | 17.5169 | 168.9813 | 224.7931 | 13.34987 | – |
| 2026 May 06 17:57 | 2026 May 05 08:28:29 | 69.2072 | 0.02096 | 17.5169 | 168.9813 | 224.7931 | 13.34987 | – |
| 2026 May 05 17:57 | 2026 May 05 08:28:29 | 69.2072 | 0.02096 | 17.5169 | 168.9813 | 224.7931 | 13.34987 | – |
| 2026 May 04 17:57 | 2026 Apr 29 03:57:14 | 69.2068 | 0.02099 | 18.3425 | 175.4544 | 224.7931 | 13.34987 | – |
| 2026 May 03 17:57 | 2026 Apr 29 03:57:14 | 69.2068 | 0.02099 | 18.3425 | 175.4544 | 224.7931 | 13.34987 | – |
| 2026 May 02 17:57 | 2026 Apr 29 03:57:14 | 69.2068 | 0.02099 | 18.3425 | 175.4544 | 224.7931 | 13.34987 | – |
| 2026 May 01 17:56 | 2026 Apr 29 03:57:14 | 69.2068 | 0.02099 | 18.3425 | 175.4544 | 224.7931 | 13.34987 | – |
| 2026 Apr 30 17:56 | 2026 Apr 29 03:57:14 | 69.2068 | 0.02099 | 18.3425 | 175.4544 | 224.7931 | 13.34987 | – |
| 2026 Apr 29 17:57 | 2026 Apr 24 11:44:01 | 69.2067 | 0.02102 | 18.9663 | 180.3405 | 224.7931 | 13.34987 | – |
| 2026 Apr 28 17:56 | 2026 Apr 24 11:44:01 | 69.2067 | 0.02102 | 18.9663 | 180.3405 | 224.7931 | 13.34987 | – |
| 2026 Apr 27 17:58 | 2026 Apr 24 11:44:01 | 69.2067 | 0.02102 | 18.9663 | 180.3405 | 224.7931 | 13.34987 | – |
| 2026 Apr 26 17:58 | 2026 Apr 24 11:44:01 | 69.2067 | 0.02102 | 18.9663 | 180.3405 | 224.7931 | 13.34987 | – |
| 2026 Apr 25 17:58 | 2026 Apr 24 11:44:01 | 69.2067 | 0.02102 | 18.9663 | 180.3405 | 224.7931 | 13.34987 | – |
| 2026 Apr 24 17:59 | 2026 Apr 24 11:44:01 | 69.2067 | 0.02102 | 18.9663 | 180.3405 | 224.7931 | 13.34987 | – |
| 2026 Apr 23 17:57 | 2026 Apr 16 22:44:15 | 69.2068 | 0.02105 | 19.9725 | 188.2137 | 224.7931 | 13.34987 | – |
| 2026 Apr 22 17:57 | 2026 Apr 16 22:44:15 | 69.2068 | 0.02105 | 19.9725 | 188.2137 | 224.7931 | 13.34987 | – |
| 2026 Apr 21 17:57 | 2026 Apr 16 22:44:15 | 69.2068 | 0.02105 | 19.9725 | 188.2137 | 224.7931 | 13.34987 | – |
| 2026 Apr 20 17:57 | 2026 Apr 16 22:44:15 | 69.2068 | 0.02105 | 19.9725 | 188.2137 | 224.7931 | 13.34987 | – |
| 2026 Apr 19 17:58 | 2026 Apr 16 22:44:15 | 69.2068 | 0.02105 | 19.9725 | 188.2137 | 224.7931 | 13.34987 | – |
| 2026 Apr 18 17:56 | 2026 Apr 12 13:49:24 | 69.2074 | 0.02108 | 20.5557 | 192.7709 | 224.7931 | 13.34987 | – |
| 2026 Apr 16 17:57 | 2026 Apr 12 13:49:24 | 69.2074 | 0.02108 | 20.5557 | 192.7709 | 224.7931 | 13.34987 | – |
| 2026 Apr 14 17:57 | 2026 Apr 12 13:49:24 | 69.2074 | 0.02108 | 20.5557 | 192.7709 | 224.7931 | 13.34987 | – |
| 2026 Apr 13 17:57 | 2026 Apr 12 13:49:24 | 69.2074 | 0.02108 | 20.5557 | 192.7709 | 224.7931 | 13.34987 | – |
| 2026 Apr 12 17:57 | 2026 Apr 08 14:30:46 | 69.2081 | 0.02110 | 21.0855 | 196.9103 | 224.7931 | 13.34987 | – |
| 2026 Apr 11 17:57 | 2026 Apr 08 14:30:46 | 69.2081 | 0.02110 | 21.0855 | 196.9103 | 224.7931 | 13.34987 | – |